createdAt,value
2022-12-03T00:01:41.704Z,0
2022-12-03T00:06:56.581Z,0
2022-12-03T00:12:12.703Z,0
2022-12-03T00:17:33.042Z,0
2022-12-03T00:22:43.108Z,0
2022-12-03T00:27:59.270Z,0
2022-12-03T00:33:14.131Z,0
2022-12-03T00:38:29.027Z,0
2022-12-03T00:43:45.217Z,0
2022-12-03T00:49:01.420Z,0
2022-12-03T00:54:17.516Z,0
2022-12-03T00:59:32.416Z,0
2022-12-03T01:04:48.087Z,0
2022-12-03T01:10:04.068Z,0
2022-12-03T01:15:20.262Z,0
2022-12-03T01:20:36.421Z,0
2022-12-03T01:25:51.908Z,0
2022-12-03T01:31:08.141Z,0
2022-12-03T01:36:24.265Z,0
2022-12-03T01:41:42.947Z,0
2022-12-03T01:46:59.258Z,0
2022-12-03T01:52:15.269Z,0
2022-12-03T01:57:30.788Z,0
2022-12-03T02:02:45.663Z,0
2022-12-03T02:08:01.895Z,0
2022-12-03T02:13:17.993Z,0
2022-12-03T02:18:32.921Z,0
2022-12-03T02:23:49.030Z,0
2022-12-03T02:24:39.029Z,0
2022-12-03T02:29:05.829Z,0
2022-12-03T02:29:55.835Z,0
2022-12-03T02:34:20.781Z,0
2022-12-03T02:35:10.791Z,0
2022-12-03T02:39:37.512Z,0
2022-12-03T02:40:27.518Z,0
2022-12-03T02:44:52.590Z,0
2022-12-03T02:45:42.395Z,0
2022-12-03T02:50:09.202Z,0
2022-12-03T02:50:59.208Z,0
2022-12-03T02:55:24.739Z,0
2022-12-03T02:56:14.740Z,0
2022-12-03T03:00:39.655Z,0
2022-12-03T03:01:29.658Z,0
2022-12-03T03:05:57.665Z,0
2022-12-03T03:06:47.661Z,0
2022-12-03T03:11:13.830Z,0
2022-12-03T03:12:03.823Z,0
2022-12-03T03:16:28.749Z,0
2022-12-03T03:17:18.708Z,0
2022-12-03T03:21:44.230Z,0
2022-12-03T03:22:34.227Z,0
2022-12-03T03:26:58.470Z,0
2022-12-03T03:27:48.464Z,0
2022-12-03T03:32:14.639Z,0
2022-12-03T03:33:04.641Z,0
2022-12-03T03:37:31.423Z,0
2022-12-03T03:38:21.417Z,0
2022-12-03T03:42:46.981Z,0
2022-12-03T03:43:36.980Z,0
2022-12-03T03:48:01.841Z,0
2022-12-03T03:48:51.833Z,0
2022-12-03T03:53:16.745Z,0
2022-12-03T03:54:06.743Z,0
2022-12-03T03:58:32.242Z,0
2022-12-03T03:59:22.242Z,0
2022-12-03T04:03:48.468Z,0
2022-12-03T04:04:38.530Z,0
2022-12-03T04:08:14.645Z,0
2022-12-03T04:09:04.582Z,0
2022-12-03T04:12:58.425Z,0
2022-12-03T04:13:29.429Z,0
2022-12-03T04:18:12.659Z,1
2022-12-03T04:18:44.479Z,1
2022-12-03T04:23:31.307Z,0
2022-12-03T04:23:59.184Z,0
2022-12-03T04:28:43.698Z,0
2022-12-03T04:29:15.348Z,0
2022-12-03T04:33:59.815Z,0
2022-12-03T04:34:49.830Z,0
2022-12-03T04:39:16.547Z,0
2022-12-03T04:40:06.554Z,0
2022-12-03T04:44:34.143Z,0
2022-12-03T04:45:24.147Z,0
2022-12-03T04:49:50.274Z,0
2022-12-03T04:50:40.283Z,0
2022-12-03T04:55:06.924Z,0
2022-12-03T04:57:54.363Z,0
2022-12-03T05:02:45.054Z,0
2022-12-03T05:03:54.720Z,0
2022-12-03T05:07:59.997Z,0
2022-12-03T05:08:19.679Z,0
2022-12-03T05:13:15.049Z,0
2022-12-03T05:26:58.730Z,0
2022-12-03T05:35:45.004Z,0
2022-12-03T05:42:41.324Z,0
2022-12-03T05:47:59.239Z,0
2022-12-03T05:53:16.199Z,0
2022-12-03T05:58:32.920Z,0
2022-12-03T06:03:49.110Z,0
2022-12-03T06:09:06.479Z,0
2022-12-03T06:19:40.849Z,0
2022-12-03T06:30:14.281Z,0
2022-12-03T06:35:30.766Z,0
2022-12-03T06:40:48.041Z,0
2022-12-03T06:46:05.687Z,0
2022-12-03T06:51:21.488Z,0
2022-12-03T06:55:49.081Z,1
2022-12-03T07:00:16.522Z,3
2022-12-03T07:05:32.681Z,8
2022-12-03T07:10:50.606Z,14
2022-12-03T07:16:09.564Z,15
2022-12-03T07:21:26.127Z,23
2022-12-03T07:25:52.454Z,37
2022-12-03T07:30:42.736Z,59
2022-12-03T07:35:51.867Z,61
2022-12-03T07:41:01.639Z,64
2022-12-03T07:46:11.629Z,64
2022-12-03T07:51:20.511Z,78
2022-12-03T07:56:28.990Z,89
2022-12-03T08:01:39.955Z,80
2022-12-03T08:06:49.155Z,79
2022-12-03T08:11:57.611Z,92
2022-12-03T08:17:08.015Z,87
2022-12-03T08:22:17.139Z,102
2022-12-03T08:27:28.176Z,146
2022-12-03T08:32:37.938Z,175
2022-12-03T08:37:47.059Z,222
2022-12-03T08:42:57.472Z,291
2022-12-03T08:48:05.964Z,331
2022-12-03T08:53:14.439Z,334
2022-12-03T08:58:22.909Z,354
2022-12-03T09:03:31.360Z,412
2022-12-03T09:08:45.643Z,527
2022-12-03T09:14:02.925Z,602
2022-12-03T09:20:09.865Z,490
2022-12-03T09:25:10.813Z,568
2022-12-03T09:30:27.594Z,547
2022-12-03T09:34:32.489Z,629
2022-12-03T09:39:42.289Z,625
2022-12-03T09:44:52.772Z,616
2022-12-03T09:50:00.513Z,576
2022-12-03T09:55:09.623Z,517
2022-12-03T10:00:17.481Z,623
2022-12-03T10:05:25.310Z,619
2022-12-03T10:10:34.410Z,543
2022-12-03T10:15:45.752Z,661
2022-12-03T10:21:03.322Z,610
2022-12-03T10:26:20.042Z,659
2022-12-03T10:31:37.604Z,738
2022-12-03T10:36:54.926Z,591
2022-12-03T10:42:12.846Z,472
2022-12-03T10:47:29.947Z,618
2022-12-03T10:52:47.876Z,527
2022-12-03T10:57:15.811Z,777
2022-12-03T11:02:07.811Z,703
2022-12-03T11:07:16.037Z,546
2022-12-03T11:12:25.138Z,509
2022-12-03T11:17:33.614Z,426
2022-12-03T11:22:42.094Z,387
2022-12-03T11:27:51.853Z,487
2022-12-03T11:33:02.279Z,433
2022-12-03T11:38:10.725Z,411
2022-12-03T11:43:19.221Z,369
2022-12-03T11:48:29.081Z,429
2022-12-03T11:53:37.450Z,387
2022-12-03T11:58:45.944Z,394
2022-12-03T12:03:54.723Z,468
2022-12-03T12:09:02.917Z,498
2022-12-03T12:14:11.386Z,451
2022-12-03T12:19:20.490Z,490
2022-12-03T12:24:30.276Z,438
2022-12-03T12:27:54.599Z,385
2022-12-03T12:33:11.497Z,431
2022-12-03T12:38:28.350Z,365
2022-12-03T12:43:45.074Z,349
2022-12-03T12:49:01.838Z,366
2022-12-03T12:53:08.029Z,428
2022-12-03T12:58:16.490Z,515
2022-12-03T13:03:26.255Z,383
2022-12-03T13:08:35.379Z,321
2022-12-03T13:13:44.765Z,336
2022-12-03T13:18:53.619Z,341
2022-12-03T13:24:03.394Z,371
2022-12-03T13:29:13.167Z,274
2022-12-03T13:34:23.541Z,286
2022-12-03T13:39:32.028Z,293
2022-12-03T13:44:41.135Z,281
2022-12-03T13:49:53.139Z,238
2022-12-03T13:55:01.958Z,207
2022-12-03T14:00:10.711Z,217
2022-12-03T14:05:19.530Z,206
2022-12-03T14:10:29.965Z,175
2022-12-03T14:15:38.412Z,150
2022-12-03T14:20:46.898Z,161
2022-12-03T14:25:56.654Z,143
2022-12-03T14:31:09.957Z,112
2022-12-03T14:36:26.923Z,123
2022-12-03T14:41:44.364Z,105
2022-12-03T14:47:01.986Z,87
2022-12-03T14:52:17.493Z,73
2022-12-03T15:02:53.538Z,29
2022-12-03T15:13:27.557Z,20
2022-12-03T15:24:01.842Z,16
2022-12-03T15:29:18.759Z,12
2022-12-03T15:34:35.035Z,9
2022-12-03T15:39:52.375Z,7
2022-12-03T15:45:13.582Z,3
2022-12-03T15:50:25.500Z,2
2022-12-03T15:54:52.850Z,1
2022-12-03T15:59:21.961Z,0
2022-12-03T16:04:38.903Z,0
2022-12-03T16:09:55.985Z,0
2022-12-03T16:15:13.164Z,0
2022-12-03T16:19:39.167Z,0
2022-12-03T16:24:30.276Z,0
2022-12-03T16:29:38.725Z,0
2022-12-03T16:34:48.496Z,0
2022-12-03T16:39:57.846Z,0
2022-12-03T16:45:06.768Z,0
2022-12-03T16:50:30.623Z,0
2022-12-03T16:55:24.341Z,0
2022-12-03T17:00:33.471Z,0
2022-12-03T17:05:43.264Z,0
2022-12-03T17:10:53.937Z,0
2022-12-03T17:16:05.035Z,0
2022-12-03T17:21:13.774Z,0
2022-12-03T17:26:22.891Z,0
2022-12-03T17:31:43.175Z,0
2022-12-03T17:36:44.354Z,0
2022-12-03T17:41:52.823Z,0
2022-12-03T17:47:02.836Z,0
2022-12-03T17:52:11.687Z,0
2022-12-03T17:57:42.204Z,0
2022-12-03T18:02:32.241Z,0
2022-12-03T18:07:47.125Z,0
2022-12-03T18:13:02.410Z,0
2022-12-03T18:18:16.868Z,0
2022-12-03T18:23:31.751Z,0
2022-12-03T18:34:03.541Z,0
2022-12-03T18:44:35.141Z,0
2022-12-03T18:55:09.353Z,0
2022-12-03T19:05:53.604Z,0
2022-12-03T19:21:28.342Z,0
2022-12-03T19:37:12.232Z,0
2022-12-03T19:42:27.768Z,0
2022-12-03T19:46:55.192Z,0
2022-12-03T19:51:36.213Z,0
2022-12-03T19:56:34.343Z,0
2022-12-03T20:01:50.576Z,0
2022-12-03T20:07:05.344Z,0
2022-12-03T20:12:22.144Z,0
2022-12-03T20:16:49.190Z,0
2022-12-03T20:21:39.381Z,0
2022-12-03T20:26:47.870Z,0
2022-12-03T20:31:57.160Z,0
2022-12-03T20:37:05.455Z,0
2022-12-03T20:42:13.938Z,0
2022-12-03T20:47:23.706Z,0
2022-12-03T20:52:32.169Z,1
2022-12-03T20:57:41.947Z,0
2022-12-03T21:02:52.593Z,0
2022-12-03T21:08:01.199Z,0
2022-12-03T21:13:10.572Z,0
2022-12-03T21:18:20.992Z,0
2022-12-03T21:23:30.729Z,0
2022-12-03T21:28:41.135Z,0
2022-12-03T21:33:51.534Z,0
2022-12-03T21:39:00.657Z,0
2022-12-03T21:44:10.410Z,0
2022-12-03T21:49:18.910Z,0
2022-12-03T21:54:28.036Z,0
2022-12-03T21:59:36.497Z,0
2022-12-03T22:04:44.970Z,0
2022-12-03T22:09:55.400Z,0
2022-12-03T22:15:02.579Z,0
2022-12-03T22:20:15.295Z,0
2022-12-03T22:25:31.464Z,0
2022-12-03T22:30:47.615Z,0
2022-12-03T22:36:01.832Z,0
2022-12-03T22:41:18.028Z,0
2022-12-03T22:46:34.199Z,0
2022-12-03T22:51:51.856Z,0
2022-12-03T22:57:03.906Z,0
2022-12-03T23:02:18.859Z,0
2022-12-03T23:07:34.335Z,0
2022-12-03T23:12:00.470Z,0
2022-12-03T23:16:52.038Z,0
2022-12-03T23:21:59.865Z,0
2022-12-03T23:27:08.965Z,0
2022-12-03T23:32:18.113Z,0
2022-12-03T23:37:31.271Z,0
2022-12-03T23:42:46.156Z,0
2022-12-03T23:48:02.393Z,0
2022-12-03T23:53:17.221Z,0
2022-12-03T23:58:33.349Z,0
